KRWF/RWF METAR and TAF weather

Enter ICAO airport designator
Station Type Date Time Source
KRWF METAR 2019/04/18 22:53 UTC NOAA

KRWF 182253Z AUTO 36007G20KT 10SM SCT045 BKN075 12/03 A2991 RMK AO2 SLP135 T01220028


Station Type Date Time Source
KRWF Decoded METAR 2019/04/18 22:53 UTC NOAA

REDWOOD FALLS MUNICIPAL, MN, United States (KRWF) 44-33N 95-05W 311M
Apr 18, 2019 - 06:53 PM EDT / 2019.04.18 2253 UTC
Wind: from the N (360 degrees) at 8 MPH (7 KT) gusting to 23 MPH (20 KT):0
Visibility: 10 mile(s):0
Sky conditions: mostly cloudy
Temperature: 54.0 F (12.2 C)
Dew Point: 37.0 F (2.8 C)
Relative Humidity: 52%
Pressure (altimeter): 29.91 in. Hg (1012 hPa)
ob: KRWF 182253Z AUTO 36007G20KT 10SM SCT045 BKN075 12/03 A2991 RMK AO2 SLP135 T01220028
cycle: 23

Station Type Date Time Source
KRWF TAF 2019/04/18 20:39 UTC NOAA

TAF
AMD KRWF 181936Z 1820/1918 34009KT P6SM VCSH SCT025 BKN035
FM182200 34011KT P6SM SCT050 BKN120
FM190100 33006KT P6SM SKC
FM191200 33005KT P6SM SKC

Example: see airport list